createdAt,value
2022-09-13T00:01:31.966Z,1.00
2022-09-13T00:03:58.899Z,1.00
2022-09-13T00:06:26.145Z,1.00
2022-09-13T00:08:54.203Z,9.90
2022-09-13T00:11:25.348Z,35.00
2022-09-13T00:13:53.458Z,87.30
2022-09-13T00:16:23.454Z,50.50
2022-09-13T00:18:51.236Z,51.40
2022-09-13T00:21:20.737Z,30.20
2022-09-13T00:23:50.972Z,41.00
2022-09-13T00:26:23.198Z,20.00
2022-09-13T00:28:54.745Z,1.00
2022-09-13T00:31:24.059Z,54.10
2022-09-13T00:33:51.950Z,29.20
2022-09-13T00:36:19.050Z,24.90
2022-09-13T00:38:46.167Z,27.20
2022-09-13T00:41:19.527Z,1.00
2022-09-13T00:43:49.368Z,11.80
2022-09-13T00:46:46.468Z,46.80
2022-09-13T00:49:19.574Z,99.90
2022-09-13T00:52:00.806Z,90.70
2022-09-13T00:54:35.543Z,74.80
2022-09-13T00:57:04.819Z,78.30
2022-09-13T00:59:43.448Z,91.80
2022-09-13T01:02:11.429Z,95.50
2022-09-13T01:04:39.389Z,99.90
2022-09-13T01:07:13.363Z,77.30
2022-09-13T01:09:44.806Z,58.00
2022-09-13T01:12:35.297Z,47.90
2022-09-13T01:15:05.479Z,77.40
2022-09-13T01:17:34.274Z,99.90
2022-09-13T01:20:03.567Z,99.90
2022-09-13T01:22:57.765Z,99.90
2022-09-13T01:25:36.483Z,99.90
2022-09-13T01:28:18.702Z,99.90
2022-09-13T01:31:19.270Z,99.90
2022-09-13T01:34:00.217Z,99.90
2022-09-13T01:36:38.716Z,99.90
2022-09-13T01:39:09.330Z,99.90
2022-09-13T01:42:16.562Z,99.90
2022-09-13T01:45:13.740Z,99.90
2022-09-13T01:48:28.964Z,99.90
2022-09-13T01:51:31.092Z,99.90
2022-09-13T01:54:06.644Z,99.90
2022-09-13T01:56:40.836Z,99.90
2022-09-13T01:59:22.551Z,99.90
2022-09-13T02:02:27.011Z,99.90
2022-09-13T02:07:44.759Z,99.90
2022-09-13T02:10:26.777Z,99.90
2022-09-13T02:12:56.277Z,99.90
2022-09-13T02:15:34.303Z,99.90
2022-09-13T02:18:18.581Z,99.90
2022-09-13T02:20:50.226Z,99.90
2022-09-13T02:23:41.960Z,99.90
2022-09-13T02:26:12.877Z,99.90
2022-09-13T02:28:48.079Z,99.90
2022-09-13T02:31:19.807Z,99.90
2022-09-13T02:33:54.180Z,99.90
2022-09-13T02:36:27.619Z,99.90
2022-09-13T02:39:00.275Z,99.90
2022-09-13T02:41:51.180Z,99.90
2022-09-13T02:44:52.874Z,99.90
2022-09-13T02:47:52.532Z,99.90
2022-09-13T02:50:56.580Z,99.90
2022-09-13T02:53:43.817Z,99.90
2022-09-13T02:56:35.239Z,99.90
2022-09-13T02:59:17.346Z,99.90
2022-09-13T03:02:08.833Z,99.90
2022-09-13T03:04:35.905Z,99.90
2022-09-13T03:07:07.593Z,99.90
2022-09-13T03:09:34.763Z,99.90
2022-09-13T03:12:10.373Z,99.90
2022-09-13T03:15:10.011Z,99.90
2022-09-13T03:18:25.167Z,99.90
2022-09-13T03:21:35.002Z,99.90
2022-09-13T03:24:16.564Z,99.90
2022-09-13T03:27:11.006Z,99.90
2022-09-13T03:30:21.382Z,99.90
2022-09-13T03:33:26.110Z,99.90
2022-09-13T03:36:01.157Z,99.90
2022-09-13T03:38:38.059Z,99.90
2022-09-13T03:41:20.332Z,99.90
2022-09-13T03:43:58.728Z,99.90
2022-09-13T03:46:49.128Z,99.90
2022-09-13T03:49:19.279Z,99.90
2022-09-13T03:51:51.273Z,99.90
2022-09-13T03:54:32.437Z,99.90
2022-09-13T03:57:16.600Z,99.90
2022-09-13T03:59:49.569Z,99.90
2022-09-13T04:02:17.671Z,99.90
2022-09-13T04:04:46.495Z,99.90
2022-09-13T04:07:16.984Z,99.90
2022-09-13T04:09:44.032Z,99.90
2022-09-13T04:12:11.284Z,99.90
2022-09-13T04:14:38.260Z,99.90
2022-09-13T04:17:05.173Z,99.90
2022-09-13T04:19:32.196Z,99.90
2022-09-13T04:21:59.637Z,99.90
2022-09-13T04:24:28.501Z,99.90
2022-09-13T04:26:55.743Z,99.90
2022-09-13T04:29:25.614Z,99.90
2022-09-13T04:31:54.446Z,99.90
2022-09-13T04:34:23.039Z,99.90
2022-09-13T04:36:52.447Z,99.90
2022-09-13T04:39:21.123Z,99.90
2022-09-13T04:41:49.683Z,99.90
2022-09-13T04:44:17.907Z,99.90
2022-09-13T04:46:48.673Z,99.90
2022-09-13T04:49:17.791Z,99.90
2022-09-13T04:51:44.670Z,99.90
2022-09-13T04:54:15.511Z,99.90
2022-09-13T04:56:46.974Z,99.90
2022-09-13T04:59:14.377Z,99.90
2022-09-13T05:01:41.718Z,99.90
2022-09-13T05:04:10.435Z,99.90
2022-09-13T05:06:37.621Z,99.90
2022-09-13T05:09:05.307Z,99.90
2022-09-13T05:11:32.424Z,99.90
2022-09-13T05:14:01.142Z,99.90
2022-09-13T05:16:32.550Z,99.90
2022-09-13T05:19:00.661Z,99.90
2022-09-13T05:21:28.236Z,99.90
2022-09-13T05:23:56.859Z,99.90
2022-09-13T05:26:27.109Z,99.90
2022-09-13T05:28:53.969Z,99.90
2022-09-13T05:31:30.822Z,96.30
2022-09-13T05:34:01.951Z,99.90
2022-09-13T05:36:29.423Z,54.70
2022-09-13T05:39:19.199Z,60.30
2022-09-13T05:41:45.447Z,71.40
2022-09-13T05:44:13.789Z,18.80
2022-09-13T05:46:42.803Z,4.20
2022-09-13T05:49:12.570Z,89.40
2022-09-13T05:51:39.804Z,99.90
2022-09-13T05:54:06.730Z,96.10
2022-09-13T05:56:33.652Z,89.20
2022-09-13T05:59:00.561Z,16.40
2022-09-13T06:01:29.300Z,1.00
2022-09-13T06:03:58.474Z,1.00
2022-09-13T06:06:26.243Z,1.00
2022-09-13T06:08:57.577Z,1.00
2022-09-13T06:11:26.432Z,1.00
2022-09-13T06:13:53.803Z,4.40
2022-09-13T06:16:21.138Z,4.30
2022-09-13T06:18:49.712Z,1.00
2022-09-13T06:21:20.379Z,1.00
2022-09-13T06:23:52.941Z,1.00
2022-09-13T06:26:26.357Z,1.00
2022-09-13T06:28:56.275Z,99.90
2022-09-13T06:31:26.979Z,99.90
2022-09-13T06:34:04.691Z,99.90
2022-09-13T06:36:31.652Z,1.00
2022-09-13T06:39:00.574Z,1.00
2022-09-13T06:41:28.280Z,99.90
2022-09-13T06:43:58.434Z,99.90
2022-09-13T06:46:29.416Z,1.00
2022-09-13T06:49:00.310Z,1.00
2022-09-13T06:51:29.965Z,99.90
2022-09-13T06:53:57.486Z,1.00
2022-09-13T06:56:30.433Z,1.00
2022-09-13T06:59:00.208Z,99.90
2022-09-13T07:01:35.799Z,99.90
2022-09-13T07:04:09.185Z,1.00
2022-09-13T07:06:40.021Z,99.90
2022-09-13T07:09:11.162Z,1.00
2022-09-13T07:11:40.822Z,1.00
2022-09-13T07:14:08.674Z,45.20
2022-09-13T07:16:38.001Z,1.00
2022-09-13T07:19:23.090Z,1.00
2022-09-13T07:21:50.813Z,1.00
2022-09-13T07:24:18.292Z,99.90
2022-09-13T07:26:46.721Z,99.90
2022-09-13T07:46:45.469Z,99.90
2022-09-13T07:49:17.049Z,99.90
2022-09-13T07:54:15.909Z,99.90
2022-09-13T08:53:01.033Z,99.90
2022-09-13T08:55:36.448Z,99.90
2022-09-13T08:58:25.681Z,99.90
2022-09-13T09:01:12.582Z,99.90
2022-09-13T09:03:46.805Z,99.90
2022-09-13T09:06:16.797Z,99.90
2022-09-13T09:08:50.201Z,99.90
2022-09-13T09:11:47.327Z,99.90
2022-09-13T09:14:20.120Z,99.90
2022-09-13T09:16:58.446Z,99.90
2022-09-13T09:19:48.501Z,99.90
2022-09-13T09:22:22.053Z,99.90
2022-09-13T09:24:55.021Z,99.90
2022-09-13T09:27:22.308Z,99.90
2022-09-13T09:29:53.617Z,99.90
2022-09-13T09:32:41.617Z,99.90
2022-09-13T09:35:24.526Z,99.90
2022-09-13T09:38:37.023Z,99.90
2022-09-13T09:41:28.961Z,99.90
2022-09-13T09:44:09.275Z,99.90
2022-09-13T09:46:40.797Z,99.90
2022-09-13T09:49:40.189Z,99.90
2022-09-13T09:52:11.173Z,99.90
2022-09-13T09:54:39.121Z,99.90
2022-09-13T09:57:08.176Z,99.90
2022-09-13T09:59:36.039Z,99.90
2022-09-13T10:02:20.473Z,99.90
2022-09-13T10:04:56.965Z,99.90
2022-09-13T10:07:35.710Z,99.90
2022-09-13T10:10:08.962Z,99.90
2022-09-13T10:12:39.749Z,99.90
2022-09-13T10:15:20.802Z,99.90
2022-09-13T10:18:16.768Z,99.90
2022-09-13T10:21:17.243Z,99.90
2022-09-13T10:23:47.054Z,99.90
2022-09-13T10:26:18.066Z,99.90
2022-09-13T10:28:54.877Z,99.90
2022-09-13T10:31:28.386Z,99.90
2022-09-13T10:34:07.895Z,99.90
2022-09-13T10:39:24.171Z,99.90
2022-09-13T10:41:59.270Z,99.90
2022-09-13T10:44:55.252Z,99.90
2022-09-13T10:48:12.356Z,99.90
2022-09-13T10:50:39.264Z,99.90
2022-09-13T10:53:38.395Z,99.90
2022-09-13T10:56:20.109Z,99.90
2022-09-13T10:58:47.043Z,99.90
2022-09-13T11:01:56.234Z,99.90
2022-09-13T11:05:09.709Z,99.90
2022-09-13T11:08:21.642Z,99.90
2022-09-13T11:11:10.328Z,99.90
2022-09-13T11:14:01.377Z,99.90
2022-09-13T11:17:03.704Z,99.90
2022-09-13T11:19:59.244Z,99.90
2022-09-13T11:22:39.640Z,99.90
2022-09-13T11:25:31.418Z,99.90
2022-09-13T11:28:41.969Z,99.90
2022-09-13T11:31:17.681Z,99.90
2022-09-13T11:34:24.462Z,99.90
2022-09-13T11:37:37.859Z,99.90
2022-09-13T11:40:24.082Z,99.90
2022-09-13T11:43:19.005Z,99.90
2022-09-13T11:46:07.677Z,99.90
2022-09-13T11:48:52.297Z,99.90
2022-09-13T11:51:45.016Z,99.90
2022-09-13T11:54:27.921Z,99.90
2022-09-13T11:57:09.315Z,99.90
2022-09-13T11:59:48.028Z,99.90
2022-09-13T12:02:19.194Z,99.90
2022-09-13T12:05:24.637Z,99.90
2022-09-13T12:08:16.313Z,99.90
2022-09-13T12:10:57.583Z,99.90
2022-09-13T12:13:29.692Z,99.90
2022-09-13T12:16:07.485Z,99.90
2022-09-13T12:18:59.321Z,99.90
2022-09-13T12:21:33.248Z,99.90
2022-09-13T12:24:18.832Z,99.90
2022-09-13T12:26:59.698Z,99.90
2022-09-13T12:29:52.108Z,99.90
2022-09-13T12:32:20.178Z,99.90
2022-09-13T12:34:52.040Z,99.90
2022-09-13T12:37:36.673Z,99.90
2022-09-13T12:40:39.761Z,99.90
2022-09-13T12:43:24.259Z,99.90
2022-09-13T12:46:00.218Z,99.90
2022-09-13T12:48:29.852Z,99.90
2022-09-13T12:51:11.216Z,99.90
2022-09-13T12:54:43.580Z,99.90
2022-09-13T12:57:49.982Z,99.90
2022-09-13T13:00:25.940Z,99.90
2022-09-13T13:03:15.997Z,99.90
2022-09-13T13:05:45.760Z,99.90
2022-09-13T13:08:21.633Z,99.90
2022-09-13T13:11:12.918Z,99.90
2022-09-13T13:13:56.849Z,99.90
2022-09-13T13:16:40.603Z,99.90
2022-09-13T13:19:34.117Z,99.90
2022-09-13T13:22:43.008Z,99.90
2022-09-13T13:25:39.032Z,99.90
2022-09-13T13:28:44.534Z,99.90
2022-09-13T13:31:36.320Z,99.90
2022-09-13T13:34:15.138Z,99.90
2022-09-13T13:36:41.970Z,99.90
2022-09-13T13:39:24.388Z,99.90
2022-09-13T13:42:29.412Z,99.90
2022-09-13T13:45:16.476Z,99.90
2022-09-13T13:48:16.445Z,99.90
2022-09-13T13:51:14.555Z,99.90
2022-09-13T13:53:58.511Z,99.90
2022-09-13T13:56:47.045Z,99.90
2022-09-13T13:59:25.388Z,99.90
2022-09-13T14:01:59.275Z,99.90
2022-09-13T14:04:44.398Z,99.90
2022-09-13T14:07:20.839Z,99.90
2022-09-13T14:13:32.825Z,99.90
2022-09-13T14:16:47.001Z,99.90
2022-09-13T14:19:34.727Z,99.90
2022-09-13T14:22:24.305Z,99.90
2022-09-13T14:24:57.169Z,99.90
2022-09-13T14:27:37.562Z,99.90
2022-09-13T14:30:34.971Z,99.90
2022-09-13T14:33:05.155Z,99.90
2022-09-13T14:35:36.924Z,99.90
2022-09-13T14:38:23.370Z,99.90
2022-09-13T14:40:53.962Z,99.90
2022-09-13T14:43:25.070Z,99.90
2022-09-13T14:46:02.755Z,99.90
2022-09-13T14:48:55.416Z,99.90
2022-09-13T14:51:33.294Z,99.90
2022-09-13T14:54:27.397Z,99.90
2022-09-13T14:56:59.233Z,99.90
2022-09-13T14:59:50.576Z,99.90
2022-09-13T15:02:23.613Z,99.90
2022-09-13T15:04:55.510Z,99.90
2022-09-13T15:07:36.422Z,99.90
2022-09-13T15:10:19.858Z,99.90
2022-09-13T15:13:10.797Z,99.90
2022-09-13T15:15:43.449Z,99.90
2022-09-13T15:18:23.858Z,99.90
2022-09-13T15:20:55.409Z,99.90
2022-09-13T15:23:28.461Z,99.90
2022-09-13T15:26:10.873Z,99.90
2022-09-13T15:28:59.251Z,99.90
2022-09-13T15:31:28.096Z,99.90
2022-09-13T15:34:23.808Z,99.90
2022-09-13T15:37:13.192Z,99.90
2022-09-13T15:40:05.486Z,99.90
2022-09-13T15:42:32.430Z,99.90
2022-09-13T15:44:59.300Z,99.90
2022-09-13T15:47:26.208Z,99.90
2022-09-13T15:49:53.253Z,99.90
2022-09-13T15:52:21.171Z,99.90
2022-09-13T15:54:51.022Z,99.90
2022-09-13T15:57:29.216Z,99.90
2022-09-13T16:00:01.502Z,99.90
2022-09-13T16:02:36.711Z,99.90
2022-09-13T16:05:03.924Z,99.90
2022-09-13T16:07:30.802Z,99.90
2022-09-13T16:09:57.673Z,99.90
2022-09-13T16:12:26.910Z,99.90
2022-09-13T16:14:54.588Z,99.90
2022-09-13T16:17:25.087Z,99.90
2022-09-13T16:19:53.224Z,99.90
2022-09-13T16:22:20.683Z,99.90
2022-09-13T16:24:47.791Z,99.90
2022-09-13T16:27:17.925Z,99.90
2022-09-13T16:29:45.363Z,99.90
2022-09-13T16:32:12.666Z,99.90
2022-09-13T16:34:39.558Z,99.90
2022-09-13T16:37:06.570Z,99.90
2022-09-13T16:39:33.454Z,99.90
2022-09-13T16:42:00.325Z,99.90
2022-09-13T16:44:27.212Z,99.90
2022-09-13T16:46:54.211Z,99.90
2022-09-13T16:49:21.140Z,99.90
2022-09-13T16:51:48.089Z,99.90
2022-09-13T16:54:15.136Z,99.90
2022-09-13T16:56:42.719Z,99.90
2022-09-13T16:59:09.741Z,99.90
2022-09-13T17:01:37.635Z,1.00
2022-09-13T17:04:05.866Z,1.00
2022-09-13T17:06:32.809Z,1.00
2022-09-13T17:09:02.563Z,1.00
2022-09-13T17:11:33.457Z,1.00
2022-09-13T17:14:04.295Z,1.00
2022-09-13T17:16:37.315Z,99.90
2022-09-13T17:19:11.622Z,99.90
2022-09-13T17:21:38.830Z,99.90
2022-09-13T17:24:10.099Z,99.90
2022-09-13T17:26:42.150Z,99.90
2022-09-13T17:29:11.632Z,99.90
2022-09-13T17:31:38.736Z,61.30
2022-09-13T17:34:05.849Z,18.80
2022-09-13T17:36:32.874Z,8.40
2022-09-13T17:38:59.804Z,79.80
2022-09-13T17:41:27.115Z,99.90
2022-09-13T17:43:54.460Z,99.90
2022-09-13T17:46:25.781Z,1.00
2022-09-13T17:48:55.141Z,99.90
2022-09-13T17:51:30.871Z,24.90
2022-09-13T17:54:09.386Z,30.00
2022-09-13T17:56:46.873Z,38.80
2022-09-13T17:59:19.964Z,37.40
2022-09-13T18:01:51.002Z,38.30
2022-09-13T18:04:21.290Z,57.50
2022-09-13T18:06:50.106Z,9.60
2022-09-13T18:09:17.077Z,7.60
2022-09-13T18:11:44.482Z,2.70
2022-09-13T18:14:16.741Z,1.00
2022-09-13T18:16:44.887Z,1.00
2022-09-13T18:19:12.170Z,1.00
2022-09-13T18:21:39.290Z,1.00
2022-09-13T18:24:07.223Z,1.00
2022-09-13T18:26:34.831Z,1.00
2022-09-13T18:29:05.341Z,1.00
2022-09-13T18:31:34.857Z,1.00
2022-09-13T18:34:06.164Z,1.00
2022-09-13T18:36:34.868Z,1.00
2022-09-13T18:39:04.781Z,1.00
2022-09-13T18:41:40.291Z,1.00
2022-09-13T18:44:09.516Z,1.00
2022-09-13T18:46:37.325Z,1.00
2022-09-13T18:49:05.576Z,1.00
2022-09-13T18:51:40.785Z,1.00
2022-09-13T18:54:11.607Z,1.00
2022-09-13T18:56:38.517Z,1.00
2022-09-13T18:59:07.545Z,1.00
2022-09-13T19:01:42.030Z,1.00
2022-09-13T19:04:15.838Z,1.00
2022-09-13T19:06:52.129Z,1.00
2022-09-13T19:09:23.270Z,1.00
2022-09-13T19:11:53.175Z,1.00
2022-09-13T19:14:27.127Z,1.00
2022-09-13T19:16:57.598Z,1.00
2022-09-13T19:19:24.706Z,1.00
2022-09-13T19:21:51.841Z,1.00
2022-09-13T19:24:20.128Z,1.00
2022-09-13T19:26:50.844Z,1.00
2022-09-13T19:29:21.847Z,1.00
2022-09-13T19:31:50.673Z,1.00
2022-09-13T19:34:20.206Z,1.00
2022-09-13T19:36:50.652Z,1.00
2022-09-13T19:39:17.999Z,1.00
2022-09-13T19:41:44.995Z,1.00
2022-09-13T19:44:14.076Z,1.00
2022-09-13T19:46:42.669Z,1.00
2022-09-13T19:49:14.232Z,1.00
2022-09-13T19:51:46.483Z,1.00
2022-09-13T19:54:18.780Z,1.00
2022-09-13T19:56:45.977Z,1.00
2022-09-13T19:59:15.685Z,1.00
2022-09-13T20:01:45.586Z,1.00
2022-09-13T20:04:19.588Z,1.00
2022-09-13T20:06:51.635Z,1.00
2022-09-13T20:09:20.933Z,1.00
2022-09-13T20:11:48.726Z,16.50
2022-09-13T20:14:18.839Z,51.00
2022-09-13T20:16:46.471Z,3.80
2022-09-13T20:22:08.779Z,1.00
2022-09-13T20:24:35.950Z,1.00
2022-09-13T20:27:02.868Z,1.00
2022-09-13T20:29:31.382Z,1.00
2022-09-13T20:31:59.479Z,99.90
2022-09-13T20:34:27.070Z,99.90
2022-09-13T20:36:53.966Z,1.00
2022-09-13T20:39:20.891Z,1.00
2022-09-13T20:41:49.851Z,1.00
2022-09-13T20:44:17.027Z,1.00
2022-09-13T20:46:44.000Z,1.00
2022-09-13T20:49:11.715Z,88.30
2022-09-13T20:51:39.123Z,1.00
2022-09-13T20:54:06.426Z,1.00
2022-09-13T20:56:34.307Z,1.00
2022-09-13T20:59:02.203Z,1.00
2022-09-13T21:01:31.502Z,1.00
2022-09-13T21:03:59.613Z,1.00
2022-09-13T21:06:29.895Z,1.00
2022-09-13T21:08:59.692Z,1.00
2022-09-13T21:11:30.086Z,1.00
2022-09-13T21:14:01.653Z,1.00
2022-09-13T21:16:35.482Z,1.00
2022-09-13T21:19:03.299Z,1.00
2022-09-13T21:21:34.541Z,1.00
2022-09-13T21:24:04.412Z,1.00
2022-09-13T21:26:33.073Z,1.00
2022-09-13T21:29:00.453Z,1.00
2022-09-13T21:31:31.706Z,1.00
2022-09-13T21:34:04.765Z,1.00
2022-09-13T21:36:34.692Z,1.00
2022-09-13T21:39:02.444Z,1.00
2022-09-13T21:41:31.147Z,1.00
2022-09-13T21:43:58.472Z,1.00
2022-09-13T21:46:31.997Z,1.00
2022-09-13T21:49:02.522Z,1.00
2022-09-13T21:51:39.463Z,48.60
2022-09-13T21:54:09.916Z,88.70
2022-09-13T21:56:40.838Z,8.40
2022-09-13T21:59:14.663Z,4.10
2022-09-13T22:01:46.797Z,1.00
2022-09-13T22:04:19.112Z,1.00
2022-09-13T22:06:48.554Z,1.00
2022-09-13T22:09:15.780Z,1.00
2022-09-13T22:11:46.060Z,1.00
2022-09-13T22:14:17.175Z,1.00
2022-09-13T22:16:46.632Z,1.00
2022-09-13T22:19:23.680Z,1.00
2022-09-13T22:21:59.230Z,1.00
2022-09-13T22:24:31.127Z,1.00
2022-09-13T22:26:59.122Z,1.00
2022-09-13T22:29:26.624Z,1.00
2022-09-13T22:31:54.249Z,1.00
2022-09-13T22:34:24.053Z,7.40
2022-09-13T22:36:51.210Z,1.00
2022-09-13T22:39:18.356Z,94.70
2022-09-13T22:41:45.949Z,99.90
2022-09-13T22:44:13.381Z,99.90
2022-09-13T22:46:44.496Z,99.90
2022-09-13T22:49:19.281Z,1.00
2022-09-13T22:51:47.648Z,1.00
2022-09-13T22:54:16.454Z,1.00
2022-09-13T22:56:43.516Z,1.00
2022-09-13T22:59:20.078Z,1.00
2022-09-13T23:01:47.690Z,1.00
2022-09-13T23:04:15.042Z,1.00
2022-09-13T23:06:43.913Z,1.00
2022-09-13T23:09:14.697Z,1.00
2022-09-13T23:11:42.012Z,1.00
2022-09-13T23:14:12.853Z,1.00
2022-09-13T23:16:46.453Z,1.00
2022-09-13T23:19:14.788Z,1.00
2022-09-13T23:21:43.070Z,1.00
2022-09-13T23:24:16.183Z,1.00
2022-09-13T23:26:44.101Z,1.00
2022-09-13T23:29:18.513Z,1.00
2022-09-13T23:31:47.045Z,1.00
2022-09-13T23:34:14.922Z,1.00
2022-09-13T23:36:44.001Z,1.00
2022-09-13T23:39:18.570Z,1.00
2022-09-13T23:41:48.116Z,1.00
2022-09-13T23:44:15.784Z,1.00
2022-09-13T23:46:43.355Z,1.00
2022-09-13T23:49:10.345Z,1.00
2022-09-13T23:51:37.605Z,1.00
2022-09-13T23:54:04.957Z,1.00
2022-09-13T23:56:33.006Z,1.00
2022-09-13T23:59:02.656Z,1.00
